createdAt,value
2018-04-22T00:02:13.849Z,10.90
2018-04-22T00:04:40.502Z,9.90
2018-04-22T00:07:07.159Z,10.43
2018-04-22T00:09:33.827Z,9.47
2018-04-22T00:12:00.478Z,10.35
2018-04-22T00:14:27.149Z,9.93
2018-04-22T00:16:53.803Z,9.97
2018-04-22T00:19:20.638Z,10.07
2018-04-22T00:21:47.298Z,10.30
2018-04-22T00:24:14.507Z,9.90
2018-04-22T00:26:41.183Z,10.10
2018-04-22T00:29:07.841Z,11.50
2018-04-22T00:31:34.518Z,8.73
2018-04-22T00:34:01.171Z,9.73
2018-04-22T00:36:27.831Z,9.47
2018-04-22T00:38:54.506Z,10.50
2018-04-22T00:41:21.166Z,9.73
2018-04-22T00:43:47.855Z,10.37
2018-04-22T00:46:14.510Z,9.57
2018-04-22T00:48:41.166Z,10.57
2018-04-22T00:51:07.836Z,11.30
2018-04-22T00:53:40.339Z,10.40
2018-04-22T00:56:07.175Z,10.37
2018-04-22T00:58:33.843Z,11.10
2018-04-22T01:01:00.502Z,11.90
2018-04-22T01:03:27.174Z,10.90
2018-04-22T01:05:53.827Z,12.57
2018-04-22T01:08:20.514Z,15.17
2018-04-22T01:10:47.165Z,14.33
2018-04-22T01:13:13.817Z,13.80
2018-04-22T01:15:40.506Z,15.23
2018-04-22T01:18:07.179Z,17.80
2018-04-22T01:20:33.859Z,17.60
2018-04-22T01:23:00.520Z,18.00
2018-04-22T01:25:27.173Z,16.67
2018-04-22T01:27:53.857Z,16.50
2018-04-22T01:30:22.084Z,17.50
2018-04-22T01:32:48.751Z,17.37
2018-04-22T01:35:15.420Z,17.53
2018-04-22T01:37:42.074Z,16.90
2018-04-22T01:40:08.767Z,17.97
2018-04-22T01:42:35.438Z,17.77
2018-04-22T01:45:02.134Z,19.37
2018-04-22T01:47:28.793Z,19.63
2018-04-22T01:49:55.459Z,21.00
2018-04-22T01:52:22.143Z,19.97
2018-04-22T01:54:48.818Z,22.00
2018-04-22T01:57:15.498Z,20.47
2018-04-22T01:59:42.147Z,21.53
2018-04-22T02:02:08.797Z,22.53
2018-04-22T02:04:37.091Z,21.80
2018-04-22T02:07:03.746Z,21.80
2018-04-22T02:09:30.426Z,20.20
2018-04-22T02:11:57.118Z,19.50
2018-04-22T02:14:23.883Z,20.37
2018-04-22T02:16:50.475Z,19.73
2018-04-22T02:19:17.139Z,20.23
2018-04-22T02:21:43.820Z,19.87
2018-04-22T02:24:10.487Z,17.10
2018-04-22T02:26:37.166Z,18.73
2018-04-22T02:29:04.312Z,18.97
2018-04-22T02:31:30.978Z,20.30
2018-04-22T02:33:57.655Z,18.20
2018-04-22T02:36:24.319Z,19.03
2018-04-22T02:42:20.227Z,20.23
2018-04-22T02:44:47.261Z,18.67
2018-04-22T02:47:13.911Z,18.47
2018-04-22T02:49:40.567Z,18.50
2018-04-22T02:52:07.239Z,17.60
2018-04-22T02:54:33.898Z,18.27
2018-04-22T02:57:00.872Z,17.47
2018-04-22T02:59:27.532Z,19.80
2018-04-22T03:01:54.191Z,18.58
2018-04-22T03:04:20.863Z,20.23
2018-04-22T03:06:47.516Z,21.87
2018-04-22T03:09:14.194Z,21.27
2018-04-22T03:11:40.912Z,19.93
2018-04-22T03:14:07.575Z,18.77
2018-04-22T03:16:34.259Z,20.93
2018-04-22T03:19:00.933Z,19.13
2018-04-22T03:21:27.618Z,20.10
2018-04-22T03:23:54.283Z,20.90
2018-04-22T03:26:20.964Z,19.10
2018-04-22T03:28:47.625Z,18.37
2018-04-22T03:31:14.287Z,18.87
2018-04-22T03:33:40.967Z,22.50
2018-04-22T03:36:07.631Z,20.93
2018-04-22T03:38:34.319Z,21.87
2018-04-22T03:41:00.986Z,22.43
2018-04-22T03:43:27.639Z,21.00
2018-04-22T03:45:54.318Z,21.20
2018-04-22T03:48:20.970Z,20.80
2018-04-22T03:50:47.648Z,23.92
2018-04-22T03:53:14.306Z,22.00
2018-04-22T03:55:41.271Z,23.27
2018-04-22T03:58:07.943Z,22.50
2018-04-22T04:00:34.606Z,21.87
2018-04-22T04:03:01.299Z,21.43
2018-04-22T04:05:27.955Z,20.10
2018-04-22T04:07:54.627Z,21.42
2018-04-22T04:10:21.307Z,23.17
2018-04-22T04:12:47.963Z,22.37
2018-04-22T04:15:14.655Z,20.77
2018-04-22T04:17:41.308Z,23.30
2018-04-22T04:20:13.849Z,22.13
2018-04-22T04:22:44.227Z,22.80
2018-04-22T04:25:25.818Z,21.93
2018-04-22T04:27:52.502Z,22.20
2018-04-22T04:30:19.159Z,22.00
2018-04-22T04:32:45.870Z,23.03
2018-04-22T04:35:12.555Z,22.47
2018-04-22T04:37:39.215Z,22.67
2018-04-22T04:40:05.891Z,21.67
2018-04-22T04:42:32.542Z,22.40
2018-04-22T04:44:59.222Z,24.90
2018-04-22T04:47:25.908Z,21.60
2018-04-22T04:49:52.564Z,21.50
2018-04-22T04:52:19.239Z,22.63
2018-04-22T04:54:45.894Z,23.00
2018-04-22T04:57:12.548Z,25.20
2018-04-22T04:59:39.226Z,22.27
2018-04-22T05:02:05.899Z,22.17
2018-04-22T05:04:32.809Z,22.07
2018-04-22T05:06:59.474Z,23.23
2018-04-22T05:09:26.132Z,24.03
2018-04-22T05:11:52.831Z,23.13
2018-04-22T05:14:19.482Z,25.10
2018-04-22T05:16:46.427Z,22.97
2018-04-22T05:19:13.079Z,24.67
2018-04-22T05:21:39.739Z,22.97
2018-04-22T05:24:06.425Z,24.10
2018-04-22T05:26:33.069Z,29.00
2018-04-22T05:28:59.750Z,23.60
2018-04-22T05:31:26.404Z,29.60
2018-04-22T05:33:53.071Z,25.83
2018-04-22T05:36:19.757Z,23.97
2018-04-22T05:38:46.410Z,23.20
2018-04-22T05:41:13.083Z,23.77
2018-04-22T05:43:39.745Z,24.50
2018-04-22T05:46:06.447Z,25.90
2018-04-22T05:48:33.123Z,22.63
2018-04-22T05:51:00.012Z,21.73
2018-04-22T05:53:26.713Z,22.30
2018-04-22T05:55:53.372Z,24.77
2018-04-22T05:58:20.043Z,30.73
2018-04-22T06:00:46.720Z,26.30
2018-04-22T06:03:13.374Z,23.63
2018-04-22T06:05:40.041Z,20.43
2018-04-22T06:08:06.699Z,20.80
2018-04-22T06:10:33.358Z,22.80
2018-04-22T06:13:00.047Z,22.73
2018-04-22T06:15:26.735Z,21.70
2018-04-22T06:17:53.427Z,20.00
2018-04-22T06:20:20.087Z,19.37
2018-04-22T06:22:46.760Z,19.50
2018-04-22T06:25:13.438Z,19.80
2018-04-22T06:27:40.109Z,21.00
2018-04-22T06:30:07.388Z,34.37
2018-04-22T06:32:34.051Z,27.93
2018-04-22T06:35:00.727Z,22.03
2018-04-22T06:37:27.387Z,25.23
2018-04-22T06:39:54.043Z,19.63
2018-04-22T06:42:20.718Z,18.07
2018-04-22T06:44:47.421Z,18.77
2018-04-22T06:47:14.095Z,20.27
2018-04-22T06:49:40.743Z,18.60
2018-04-22T06:52:07.408Z,20.33
2018-04-22T06:54:34.102Z,20.27
2018-04-22T06:57:00.754Z,17.67
2018-04-22T06:59:27.443Z,19.97
2018-04-22T07:01:54.094Z,19.57
2018-04-22T07:04:20.746Z,21.43
2018-04-22T07:06:47.429Z,19.27
2018-04-22T07:09:14.108Z,19.62
2018-04-22T07:11:40.778Z,19.50
2018-04-22T07:14:07.437Z,18.43
2018-04-22T07:16:34.094Z,19.20
2018-04-22T07:19:00.775Z,20.80
2018-04-22T07:21:27.443Z,18.07
2018-04-22T07:23:54.124Z,19.73
2018-04-22T07:26:20.787Z,15.93
2018-04-22T07:28:47.442Z,16.63
2018-04-22T07:31:14.132Z,17.87
2018-04-22T07:33:40.787Z,20.03
2018-04-22T07:36:07.475Z,17.60
2018-04-22T07:38:34.125Z,20.07
2018-04-22T07:41:00.807Z,20.23
2018-04-22T07:43:27.470Z,18.97
2018-04-22T07:45:54.130Z,25.80
2018-04-22T07:48:20.812Z,24.03
2018-04-22T07:50:47.466Z,25.03
2018-04-22T07:53:14.140Z,23.27
2018-04-22T07:55:40.795Z,22.60
2018-04-22T07:58:07.490Z,21.40
2018-04-22T08:00:34.150Z,22.33
2018-04-22T08:03:00.822Z,22.60
2018-04-22T08:05:27.517Z,21.10
2018-04-22T08:07:54.166Z,20.70
2018-04-22T08:10:20.843Z,20.45
2018-04-22T08:12:47.498Z,22.97
2018-04-22T08:15:14.147Z,23.03
2018-04-22T08:17:40.814Z,25.27
2018-04-22T08:20:07.467Z,26.03
2018-04-22T08:22:34.144Z,25.60
2018-04-22T08:25:00.802Z,24.30
2018-04-22T08:27:28.230Z,24.05
2018-04-22T08:29:54.903Z,24.47
2018-04-22T08:32:21.559Z,24.30
2018-04-22T08:34:48.266Z,23.40
2018-04-22T08:37:14.938Z,23.90
2018-04-22T08:39:41.595Z,23.87
2018-04-22T08:42:08.291Z,23.92
2018-04-22T08:44:34.952Z,23.77
2018-04-22T08:47:01.642Z,21.90
2018-04-22T08:49:28.337Z,23.87
2018-04-22T08:51:54.986Z,23.17
2018-04-22T08:54:21.675Z,23.63
2018-04-22T08:56:48.340Z,22.50
2018-04-22T08:59:15.029Z,22.37
2018-04-22T09:01:41.697Z,22.47
2018-04-22T09:04:08.400Z,21.00
2018-04-22T09:06:35.069Z,20.67
2018-04-22T09:09:01.747Z,22.30
2018-04-22T09:11:28.398Z,20.70
2018-04-22T09:13:55.100Z,23.17
2018-04-22T09:16:21.768Z,21.50
2018-04-22T09:18:48.450Z,21.37
2018-04-22T09:21:15.107Z,18.90
2018-04-22T09:23:41.783Z,21.30
2018-04-22T09:26:08.436Z,20.33
2018-04-22T09:28:35.119Z,18.63
2018-04-22T09:31:01.801Z,18.10
2018-04-22T09:33:28.495Z,16.90
2018-04-22T09:35:55.154Z,18.30
2018-04-22T09:38:21.861Z,18.90
2018-04-22T09:40:48.567Z,16.23
2018-04-22T09:43:15.263Z,17.90
2018-04-22T09:45:41.926Z,20.00
2018-04-22T09:48:08.611Z,20.37
2018-04-22T09:50:35.318Z,19.30
2018-04-22T09:53:02.007Z,22.90
2018-04-22T09:55:28.675Z,120.40
2018-04-22T09:57:55.334Z,20.57
2018-04-22T10:00:27.653Z,15.57
2018-04-22T10:02:55.171Z,19.37
2018-04-22T10:05:22.507Z,18.80
2018-04-22T10:07:49.174Z,17.57
2018-04-22T10:10:15.844Z,17.07
2018-04-22T10:12:42.516Z,16.63
2018-04-22T10:15:09.171Z,16.80
2018-04-22T10:17:35.871Z,18.73
2018-04-22T10:20:02.527Z,46.67
2018-04-22T10:22:29.198Z,17.53
2018-04-22T10:24:55.886Z,16.00
2018-04-22T10:27:22.543Z,16.30
2018-04-22T10:29:49.214Z,18.15
2018-04-22T10:32:15.866Z,36.57
2018-04-22T10:34:42.536Z,19.10
2018-04-22T10:37:09.216Z,16.83
2018-04-22T10:39:35.877Z,23.70
2018-04-22T10:42:02.619Z,15.17
2018-04-22T10:44:29.498Z,15.33
2018-04-22T10:46:56.163Z,15.40
2018-04-22T10:49:22.854Z,14.90
2018-04-22T10:51:50.265Z,17.60
2018-04-22T10:54:16.941Z,14.33
2018-04-22T10:56:43.598Z,13.77
2018-04-22T10:59:10.265Z,13.07
2018-04-22T11:01:37.341Z,13.60
2018-04-22T11:04:04.002Z,14.43
2018-04-22T11:06:30.846Z,13.30
2018-04-22T11:08:57.499Z,13.90
2018-04-22T11:11:24.153Z,12.93
2018-04-22T11:13:50.827Z,12.10
2018-04-22T11:16:17.482Z,11.27
2018-04-22T11:18:44.512Z,12.27
2018-04-22T11:21:11.167Z,11.27
2018-04-22T11:23:37.811Z,11.93
2018-04-22T11:26:04.487Z,10.87
2018-04-22T11:28:31.145Z,11.77
2018-04-22T11:30:57.816Z,11.37
2018-04-22T11:33:24.473Z,9.53
2018-04-22T11:35:51.131Z,10.23
2018-04-22T11:38:17.806Z,8.87
2018-04-22T11:40:44.466Z,10.70
2018-04-22T11:43:11.432Z,10.73
2018-04-22T11:45:38.075Z,8.17
2018-04-22T11:48:04.729Z,9.37
2018-04-22T11:50:31.403Z,8.00
2018-04-22T11:52:58.051Z,7.73
2018-04-22T11:55:24.719Z,7.50
2018-04-22T11:57:51.379Z,9.33
2018-04-22T12:00:18.024Z,8.27
2018-04-22T12:02:44.809Z,7.40
2018-04-22T12:05:11.466Z,6.50
2018-04-22T12:07:38.127Z,6.87
2018-04-22T12:10:04.803Z,6.90
2018-04-22T12:12:31.458Z,6.40
2018-04-22T12:14:58.125Z,6.80
2018-04-22T12:17:25.020Z,7.30
2018-04-22T12:19:51.694Z,7.87
2018-04-22T12:22:18.347Z,7.07
2018-04-22T12:24:45.006Z,5.63
2018-04-22T12:27:11.670Z,7.33
2018-04-22T12:29:38.308Z,5.33
2018-04-22T12:32:04.979Z,6.47
2018-04-22T12:34:31.620Z,5.30
2018-04-22T12:36:58.275Z,6.17
2018-04-22T12:39:24.933Z,5.40
2018-04-22T12:41:51.606Z,4.53
2018-04-22T12:44:18.284Z,5.90
2018-04-22T12:46:44.941Z,4.77
2018-04-22T12:49:11.586Z,4.63
2018-04-22T12:51:38.271Z,5.37
2018-04-22T12:54:04.924Z,4.77
2018-04-22T12:56:31.726Z,5.17
2018-04-22T12:58:58.407Z,6.07
2018-04-22T13:01:25.056Z,5.80
2018-04-22T13:03:51.726Z,4.57
2018-04-22T13:06:18.369Z,5.10
2018-04-22T13:08:45.033Z,4.57
2018-04-22T13:11:11.688Z,6.90
2018-04-22T13:13:38.342Z,7.83
2018-04-22T13:16:05.008Z,5.03
2018-04-22T13:18:31.969Z,5.33
2018-04-22T13:20:58.815Z,4.40
2018-04-22T13:23:25.462Z,4.10
2018-04-22T13:25:52.106Z,5.87
2018-04-22T13:28:18.806Z,5.60
2018-04-22T13:30:45.461Z,7.80
2018-04-22T13:33:12.126Z,6.43
2018-04-22T13:35:38.774Z,5.50
2018-04-22T13:38:05.434Z,6.13
2018-04-22T13:40:32.117Z,5.43
2018-04-22T13:42:58.983Z,5.60
2018-04-22T13:45:25.654Z,5.33
2018-04-22T13:47:52.316Z,6.13
2018-04-22T13:50:18.980Z,5.70
2018-04-22T13:52:46.590Z,5.83
2018-04-22T13:55:13.249Z,5.47
2018-04-22T13:57:39.923Z,5.13
2018-04-22T14:00:06.577Z,4.30
2018-04-22T14:02:33.277Z,4.70
2018-04-22T14:04:59.927Z,4.53
2018-04-22T14:07:26.582Z,5.80
2018-04-22T14:09:53.241Z,4.27
2018-04-22T14:12:19.903Z,5.13
2018-04-22T14:14:46.563Z,5.10
2018-04-22T14:17:13.239Z,4.50
2018-04-22T14:19:39.887Z,4.70
2018-04-22T14:22:06.565Z,5.10
2018-04-22T14:24:33.211Z,4.93
2018-04-22T14:27:00.045Z,4.73
2018-04-22T14:29:26.698Z,4.67
2018-04-22T14:31:53.353Z,4.57
2018-04-22T14:34:20.038Z,6.33
2018-04-22T14:36:46.694Z,4.60
2018-04-22T14:39:13.365Z,5.30
2018-04-22T14:41:40.006Z,4.77
2018-04-22T14:44:13.197Z,4.75
2018-04-22T14:46:39.884Z,5.27
2018-04-22T14:49:06.541Z,5.17
2018-04-22T14:51:33.213Z,4.97
2018-04-22T14:53:59.866Z,5.80
2018-04-22T14:56:26.508Z,5.23
2018-04-22T14:58:53.448Z,4.40
2018-04-22T15:01:20.212Z,5.13
2018-04-22T15:03:46.881Z,4.90
2018-04-22T15:06:13.551Z,5.00
2018-04-22T15:08:40.202Z,4.90
2018-04-22T15:11:06.868Z,5.30
2018-04-22T15:13:33.517Z,5.13
2018-04-22T15:16:00.255Z,4.60
2018-04-22T15:18:26.908Z,4.93
2018-04-22T15:20:53.562Z,3.97
2018-04-22T15:23:20.226Z,3.95
2018-04-22T15:25:46.888Z,3.70
2018-04-22T15:28:13.566Z,5.17
2018-04-22T15:30:40.221Z,4.40
2018-04-22T15:33:06.875Z,4.60
2018-04-22T15:35:33.552Z,5.57
2018-04-22T15:38:00.202Z,4.40
2018-04-22T15:40:26.882Z,5.80
2018-04-22T15:42:53.635Z,4.87
2018-04-22T15:45:20.292Z,5.33
2018-04-22T15:47:46.962Z,5.70
2018-04-22T15:50:14.146Z,4.70
2018-04-22T15:52:40.845Z,5.30
2018-04-22T15:55:07.494Z,4.57
2018-04-22T15:57:34.138Z,4.40
2018-04-22T16:00:00.807Z,5.20
2018-04-22T16:02:27.670Z,4.47
2018-04-22T16:04:54.368Z,4.67
2018-04-22T16:07:21.022Z,5.27
2018-04-22T16:09:47.698Z,5.50
2018-04-22T16:12:14.366Z,5.03
2018-04-22T16:14:41.079Z,4.63
2018-04-22T16:17:07.715Z,4.00
2018-04-22T16:19:34.362Z,5.43
2018-04-22T16:22:01.032Z,4.60
2018-04-22T16:24:27.698Z,5.57
2018-04-22T16:26:54.345Z,3.73
2018-04-22T16:29:21.315Z,4.70
2018-04-22T16:31:47.962Z,4.60
2018-04-22T16:34:14.967Z,5.03
2018-04-22T16:36:41.622Z,4.90
2018-04-22T16:39:08.285Z,5.00
2018-04-22T16:41:34.946Z,4.57
2018-04-22T16:44:01.591Z,4.50
2018-04-22T16:46:28.268Z,4.20
2018-04-22T16:48:54.926Z,5.07
2018-04-22T16:51:21.570Z,4.47
2018-04-22T16:53:48.450Z,5.00
2018-04-22T16:56:15.126Z,10.30
2018-04-22T16:58:41.793Z,7.43
2018-04-22T17:01:08.445Z,5.20
2018-04-22T17:03:35.090Z,5.20
2018-04-22T17:06:01.751Z,4.90
2018-04-22T17:08:28.391Z,4.70
2018-04-22T17:10:55.056Z,5.53
2018-04-22T17:13:21.708Z,5.97
2018-04-22T17:15:48.355Z,5.00
2018-04-22T17:18:15.031Z,4.37
2018-04-22T17:20:41.678Z,5.50
2018-04-22T17:23:08.358Z,5.67
2018-04-22T17:25:35.013Z,5.13
2018-04-22T17:28:01.668Z,5.33
2018-04-22T17:30:28.343Z,6.07
2018-04-22T17:32:55.008Z,5.60
2018-04-22T17:35:21.692Z,5.57
2018-04-22T17:37:48.347Z,5.70
2018-04-22T17:40:14.998Z,6.23
2018-04-22T17:42:42.038Z,5.80
2018-04-22T17:45:08.698Z,8.30
2018-04-22T17:47:35.366Z,6.73
2018-04-22T17:50:02.010Z,5.97
2018-04-22T17:52:28.657Z,5.60
2018-04-22T17:54:55.323Z,5.60
2018-04-22T17:57:21.971Z,6.60
2018-04-22T17:59:48.634Z,6.37
2018-04-22T18:02:15.283Z,6.77
2018-04-22T18:04:41.955Z,11.27
2018-04-22T18:07:08.624Z,9.10
2018-04-22T18:09:35.293Z,7.07
2018-04-22T18:12:01.987Z,9.33
2018-04-22T18:14:28.663Z,9.80
2018-04-22T18:16:55.327Z,9.10
2018-04-22T18:19:21.995Z,8.40
2018-04-22T18:21:48.647Z,8.97
2018-04-22T18:24:15.578Z,9.23
2018-04-22T18:26:42.231Z,8.77
2018-04-22T18:29:08.919Z,22.37
2018-04-22T18:31:35.603Z,12.00
2018-04-22T18:34:02.255Z,9.80
2018-04-22T18:36:28.943Z,15.40
2018-04-22T18:38:55.590Z,8.17
2018-04-22T18:41:22.246Z,46.37
2018-04-22T18:43:48.908Z,17.37
2018-04-22T18:46:15.568Z,11.83
2018-04-22T18:48:42.236Z,9.30
2018-04-22T18:51:08.886Z,8.77
2018-04-22T18:53:35.543Z,8.40
2018-04-22T18:56:02.228Z,9.07
2018-04-22T18:58:28.879Z,20.13
2018-04-22T19:00:55.563Z,17.13
2018-04-22T19:03:22.219Z,9.53
2018-04-22T19:05:49.298Z,9.20
2018-04-22T19:08:15.948Z,8.47
2018-04-22T19:10:42.603Z,9.20
2018-04-22T19:13:09.290Z,9.97
2018-04-22T19:15:35.954Z,9.70
2018-04-22T19:18:02.635Z,9.90
2018-04-22T19:20:29.287Z,12.27
2018-04-22T19:22:55.941Z,11.23
2018-04-22T19:25:22.623Z,9.80
2018-04-22T19:27:49.290Z,11.43
2018-04-22T19:30:15.958Z,9.93
2018-04-22T19:32:42.608Z,10.73
2018-04-22T19:35:09.274Z,9.93
2018-04-22T19:37:35.937Z,9.67
2018-04-22T19:40:02.648Z,10.37
2018-04-22T19:42:29.342Z,10.60
2018-04-22T19:44:56.014Z,10.87
2018-04-22T19:47:22.721Z,11.10
2018-04-22T19:49:49.759Z,11.50
2018-04-22T19:52:16.437Z,11.03
2018-04-22T19:54:43.141Z,9.47
2018-04-22T19:57:09.819Z,10.57
2018-04-22T19:59:36.482Z,11.27
2018-04-22T20:02:03.186Z,10.77
2018-04-22T20:04:29.845Z,10.57
2018-04-22T20:06:56.535Z,10.17
2018-04-22T20:09:23.212Z,11.20
2018-04-22T20:11:49.872Z,11.30
2018-04-22T20:14:16.542Z,11.07
2018-04-22T20:16:43.208Z,12.50
2018-04-22T20:19:09.900Z,11.10
2018-04-22T20:21:36.587Z,12.03
2018-04-22T20:24:03.247Z,11.27
2018-04-22T20:26:29.925Z,13.43
2018-04-22T20:28:56.587Z,13.77
2018-04-22T20:31:23.270Z,10.93
2018-04-22T20:33:49.928Z,11.60
2018-04-22T20:36:16.595Z,11.80
2018-04-22T20:38:43.274Z,11.10
2018-04-22T20:41:09.939Z,10.27
2018-04-22T20:43:36.610Z,10.73
2018-04-22T20:46:03.268Z,12.03
2018-04-22T20:48:29.925Z,11.20
2018-04-22T20:50:56.606Z,10.00
2018-04-22T20:53:23.261Z,11.00
2018-04-22T20:55:49.935Z,12.33
2018-04-22T20:58:16.592Z,19.50
2018-04-22T21:00:43.243Z,17.30
2018-04-22T21:03:09.918Z,14.70
2018-04-22T21:05:36.582Z,12.10
2018-04-22T21:08:03.499Z,12.33
2018-04-22T21:10:30.164Z,12.30
2018-04-22T21:12:56.817Z,12.53
2018-04-22T21:15:23.489Z,11.30
2018-04-22T21:17:50.139Z,12.00
2018-04-22T21:20:16.819Z,12.20
2018-04-22T21:22:43.467Z,11.27
2018-04-22T21:25:10.132Z,12.13
2018-04-22T21:27:36.814Z,13.03
2018-04-22T21:30:03.475Z,15.43
2018-04-22T21:32:30.536Z,13.53
2018-04-22T21:34:57.208Z,14.07
2018-04-22T21:37:23.874Z,13.37
2018-04-22T21:39:50.537Z,14.17
2018-04-22T21:42:17.408Z,13.60
2018-04-22T21:44:44.079Z,12.50
2018-04-22T21:47:10.739Z,12.80
2018-04-22T21:49:37.399Z,14.90
2018-04-22T21:52:04.166Z,12.85
2018-04-22T21:54:30.819Z,14.43
2018-04-22T21:56:57.519Z,13.60
2018-04-22T21:59:24.205Z,12.70
2018-04-22T22:01:50.870Z,14.93
2018-04-22T22:04:17.559Z,13.83
2018-04-22T22:06:44.213Z,14.70
2018-04-22T22:09:11.018Z,14.60
2018-04-22T22:11:43.523Z,14.20
2018-04-22T22:14:10.179Z,14.57
2018-04-22T22:16:36.849Z,14.60
2018-04-22T22:19:03.499Z,14.07
2018-04-22T22:21:30.170Z,15.70
2018-04-22T22:23:56.825Z,15.10
2018-04-22T22:26:23.478Z,15.50
2018-04-22T22:28:50.146Z,12.73
2018-04-22T22:31:16.799Z,12.73
2018-04-22T22:33:43.477Z,12.40
2018-04-22T22:36:10.130Z,13.60
2018-04-22T22:38:36.782Z,12.90
2018-04-22T22:41:03.464Z,14.53
2018-04-22T22:43:30.114Z,14.33
2018-04-22T22:45:56.786Z,13.80
2018-04-22T22:48:23.446Z,14.73
2018-04-22T22:50:50.094Z,15.90
2018-04-22T22:53:16.777Z,14.50
2018-04-22T22:55:43.439Z,15.03
2018-04-22T22:58:10.116Z,15.10
2018-04-22T23:00:36.766Z,15.93
2018-04-22T23:03:03.468Z,15.50
2018-04-22T23:05:30.124Z,16.47
2018-04-22T23:07:56.784Z,16.07
2018-04-22T23:10:23.462Z,14.07
2018-04-22T23:12:50.111Z,14.60
2018-04-22T23:15:17.294Z,14.93
2018-04-22T23:17:43.958Z,14.73
2018-04-22T23:20:10.622Z,15.60
2018-04-22T23:22:37.375Z,14.37
2018-04-22T23:25:04.031Z,15.93
2018-04-22T23:27:30.923Z,15.37
2018-04-22T23:29:57.603Z,14.67
2018-04-22T23:32:24.719Z,15.50
2018-04-22T23:34:51.469Z,15.27
2018-04-22T23:37:18.143Z,14.97
2018-04-22T23:39:44.976Z,15.33
2018-04-22T23:42:11.667Z,15.33
2018-04-22T23:44:38.867Z,14.70
2018-04-22T23:47:05.555Z,17.17
2018-04-22T23:49:32.210Z,16.00
2018-04-22T23:51:58.888Z,17.60
2018-04-22T23:54:25.542Z,16.47
2018-04-22T23:56:52.195Z,16.77
2018-04-22T23:59:18.866Z,17.20
